createdAt,value
2023-09-14T00:04:40.767Z,23.8
2023-09-14T00:10:33.190Z,23.8
2023-09-14T00:16:25.754Z,23.8
2023-09-14T00:22:18.370Z,23.8
2023-09-14T00:28:09.890Z,23.8
2023-09-14T00:33:47.651Z,23.8
2023-09-14T00:39:39.803Z,23.8
2023-09-14T00:45:32.020Z,23.8
2023-09-14T00:51:24.408Z,23.8
2023-09-14T00:57:16.515Z,23.8
2023-09-14T01:03:09.351Z,23.8
2023-09-14T01:09:01.814Z,23.8
2023-09-14T01:14:54.624Z,23.8
2023-09-14T01:20:47.061Z,23.8
2023-09-14T01:26:38.413Z,23.8
2023-09-14T01:32:30.089Z,23.8
2023-09-14T01:38:22.299Z,23.8
2023-09-14T01:44:13.989Z,23.8
2023-09-14T01:50:09.168Z,23.8
2023-09-14T01:56:00.873Z,23.8
2023-09-14T02:01:52.270Z,23.8
2023-09-14T02:07:44.370Z,23.8
2023-09-14T02:13:36.335Z,23.8
2023-09-14T02:19:28.402Z,23.8
2023-09-14T02:25:21.079Z,23.8
2023-09-14T02:30:58.675Z,23.7
2023-09-14T02:36:35.776Z,23.8
2023-09-14T02:42:27.880Z,23.8
2023-09-14T02:48:04.991Z,23.8
2023-09-14T02:53:26.167Z,23.8
2023-09-14T02:59:04.044Z,23.8
2023-09-14T03:04:41.786Z,23.8
2023-09-14T03:10:17.444Z,23.7
2023-09-14T03:15:54.128Z,23.8
2023-09-14T03:21:46.340Z,23.7
2023-09-14T03:27:37.833Z,23.8
2023-09-14T03:33:31.013Z,23.7
2023-09-14T03:39:22.905Z,23.8
2023-09-14T03:45:14.623Z,23.7
2023-09-14T03:51:07.309Z,23.7
2023-09-14T03:56:58.938Z,23.7
2023-09-14T04:02:52.254Z,23.6
2023-09-14T04:08:45.148Z,23.6
2023-09-14T04:14:23.023Z,23.6
2023-09-14T04:20:02.989Z,23.4
2023-09-14T04:25:55.051Z,23.3
2023-09-14T04:31:48.220Z,23.1
2023-09-14T04:37:40.316Z,23
2023-09-14T04:43:32.962Z,22.9
2023-09-14T04:49:25.332Z,22.9
2023-09-14T04:55:16.360Z,22.9
2023-09-14T05:01:11.822Z,22.8
2023-09-14T05:07:06.630Z,22.7
2023-09-14T05:12:57.578Z,22.6
2023-09-14T05:18:50.016Z,22.6
2023-09-14T05:24:43.936Z,22.6
2023-09-14T05:30:34.711Z,22.6
2023-09-14T05:36:27.574Z,22.6
2023-09-14T05:42:22.043Z,22.6
2023-09-14T05:48:14.435Z,22.6
2023-09-14T05:53:52.577Z,22.6
2023-09-14T05:59:58.556Z,22.6
2023-09-14T06:06:06.258Z,22.6
2023-09-14T06:11:58.379Z,22.6
2023-09-14T06:17:50.846Z,22.6
2023-09-14T06:23:41.887Z,22.7
2023-09-14T06:29:34.171Z,22.8
2023-09-14T06:35:12.147Z,22.8
2023-09-14T06:41:04.620Z,22.8
2023-09-14T06:46:57.667Z,22.8
2023-09-14T06:52:35.233Z,22.9
2023-09-14T06:58:29.740Z,22.9
2023-09-14T07:04:23.742Z,22.9
2023-09-14T07:10:15.649Z,22.9
2023-09-14T07:16:08.390Z,22.9
2023-09-14T07:22:01.031Z,22.9
2023-09-14T07:27:37.506Z,22.9
2023-09-14T07:33:28.207Z,22.9
2023-09-14T07:39:22.009Z,22.9
2023-09-14T07:44:58.304Z,22.9
2023-09-14T07:50:51.995Z,22.9
2023-09-14T07:56:43.541Z,22.9
2023-09-14T08:02:35.072Z,22.9
2023-09-14T08:08:28.396Z,23
2023-09-14T08:14:04.890Z,23
2023-09-14T08:19:58.447Z,23.1
2023-09-14T08:25:50.503Z,23.1
2023-09-14T08:31:44.416Z,23.1
2023-09-14T08:37:42.519Z,23.1
2023-09-14T08:43:49.685Z,23.1
2023-09-14T08:49:42.997Z,23.2
2023-09-14T08:55:49.316Z,23.3
2023-09-14T09:01:43.909Z,23.3
2023-09-14T09:07:38.760Z,23.3
2023-09-14T09:13:34.582Z,23.3
2023-09-14T09:19:27.429Z,23.3
2023-09-14T09:25:20.585Z,23.3
2023-09-14T09:31:13.224Z,23.4
2023-09-14T09:37:05.554Z,23.4
2023-09-14T09:43:01.212Z,23.4
2023-09-14T09:48:54.273Z,23.4
2023-09-14T09:54:47.906Z,23.5
2023-09-14T10:00:41.139Z,23.6
2023-09-14T10:06:19.761Z,23.5
2023-09-14T10:12:14.102Z,23.6
2023-09-14T10:18:07.360Z,23.7
2023-09-14T10:23:45.701Z,23.8
2023-09-14T10:29:37.664Z,23.8
2023-09-14T10:35:45.369Z,23.7
2023-09-14T10:41:37.994Z,23.7
2023-09-14T10:47:19.041Z,23.8
2023-09-14T10:53:11.938Z,23.8
2023-09-14T10:59:05.028Z,23.8
2023-09-14T11:06:16.435Z,23.8
2023-09-14T11:12:25.538Z,23.8
2023-09-14T11:18:33.363Z,23.8
2023-09-14T11:24:47.637Z,23.9
2023-09-14T11:32:02.020Z,24.1
2023-09-14T11:38:37.403Z,24.1
2023-09-14T11:46:17.469Z,24.1
2023-09-14T11:52:44.129Z,24
2023-09-14T11:58:35.869Z,24
2023-09-14T12:04:28.526Z,24.1
2023-09-14T12:10:42.410Z,24
2023-09-14T12:16:34.876Z,24.2
2023-09-14T12:22:11.195Z,24.2
2023-09-14T12:27:50.146Z,24.4
2023-09-14T12:33:42.658Z,24.4
2023-09-14T12:39:50.033Z,24.3
2023-09-14T12:45:43.136Z,24.2
2023-09-14T12:51:35.931Z,24.3
2023-09-14T12:57:27.352Z,24.4
2023-09-14T13:03:20.594Z,24.4
2023-09-14T13:09:13.020Z,24.3
2023-09-14T13:15:03.995Z,24.3
2023-09-14T13:20:57.398Z,24.4
2023-09-14T13:26:49.776Z,24.3
2023-09-14T13:32:43.974Z,24.3
2023-09-14T13:38:38.802Z,24.3
2023-09-14T13:44:31.257Z,24.3
2023-09-14T13:50:25.062Z,24.3
2023-09-14T13:56:17.994Z,24.4
2023-09-14T14:02:14.599Z,24.4
2023-09-14T14:08:08.323Z,24.5
2023-09-14T14:14:02.418Z,24.4
2023-09-14T14:20:13.613Z,24.3
2023-09-14T14:26:08.502Z,24.3
2023-09-14T14:32:04.793Z,24.3
2023-09-14T14:38:00.429Z,24.3
2023-09-14T14:44:55.160Z,24.3
2023-09-14T14:50:48.863Z,24.3
2023-09-14T14:56:42.498Z,24.3
2023-09-14T15:02:35.362Z,24.3
2023-09-14T15:08:29.928Z,24.3
2023-09-14T15:14:22.776Z,24.3
2023-09-14T15:20:15.746Z,24.4
2023-09-14T15:25:53.447Z,24.3
2023-09-14T15:31:47.119Z,24.3
2023-09-14T15:37:40.133Z,24.3
2023-09-14T15:43:35.306Z,24.3
2023-09-14T15:49:32.591Z,24.3
2023-09-14T15:55:32.544Z,24.3
2023-09-14T16:01:28.437Z,24.4
2023-09-14T16:07:24.298Z,24.4
2023-09-14T16:13:17.752Z,24.4
2023-09-14T16:18:56.991Z,24.4
2023-09-14T16:24:49.671Z,24.3
2023-09-14T16:30:46.102Z,24.3
2023-09-14T16:36:39.629Z,24.3
2023-09-14T16:42:32.304Z,24.3
2023-09-14T16:48:25.310Z,24.2
2023-09-14T16:54:19.401Z,24.2
2023-09-14T16:59:56.976Z,24.2
2023-09-14T17:05:51.656Z,24.2
2023-09-14T17:11:46.606Z,24.1
2023-09-14T17:17:39.318Z,24.1
2023-09-14T17:23:31.995Z,24.1
2023-09-14T17:29:24.368Z,24.1
2023-09-14T17:35:17.713Z,24.1
2023-09-14T17:41:10.126Z,24.1
2023-09-14T17:47:02.770Z,24.2
2023-09-14T17:52:42.164Z,24.1
2023-09-14T17:58:33.981Z,24.1
2023-09-14T18:04:11.402Z,24.1
2023-09-14T18:10:03.768Z,24.1
2023-09-14T18:15:39.832Z,24.1
2023-09-14T18:21:18.144Z,24.1
2023-09-14T18:27:11.100Z,24.1
2023-09-14T18:33:05.354Z,24.1
2023-09-14T18:38:43.163Z,24.1
2023-09-14T18:44:36.811Z,24.1
2023-09-14T18:50:14.141Z,24.1
2023-09-14T18:56:07.039Z,24.1
2023-09-14T19:02:51.391Z,24.1
2023-09-14T19:08:45.485Z,24.1
2023-09-14T19:14:39.155Z,24
2023-09-14T19:20:32.761Z,24
2023-09-14T19:26:09.358Z,24
2023-09-14T19:32:02.968Z,24
2023-09-14T19:37:56.654Z,24
2023-09-14T19:43:33.781Z,24
2023-09-14T19:49:28.082Z,23.9
2023-09-14T19:55:18.666Z,23.9
2023-09-14T20:00:55.307Z,23.9
2023-09-14T20:06:18.801Z,23.8
2023-09-14T20:12:11.827Z,23.8
2023-09-14T20:18:04.077Z,23.8
2023-09-14T20:23:41.812Z,23.8
2023-09-14T20:29:18.912Z,23.8
2023-09-14T20:34:56.258Z,23.8
2023-09-14T20:40:34.009Z,23.8
2023-09-14T20:46:11.795Z,23.7
2023-09-14T20:51:49.774Z,23.7
2023-09-14T20:57:27.181Z,23.7
2023-09-14T21:03:20.777Z,23.7
2023-09-14T21:09:15.113Z,23.6
2023-09-14T21:15:08.150Z,23.6
2023-09-14T21:20:46.969Z,23.6
2023-09-14T21:26:40.742Z,23.6
2023-09-14T21:32:33.703Z,23.6
2023-09-14T21:38:25.691Z,23.6
2023-09-14T21:44:02.972Z,23.6
2023-09-14T21:49:55.792Z,23.6
2023-09-14T21:55:34.706Z,23.5
2023-09-14T22:01:26.792Z,23.5
2023-09-14T22:07:56.728Z,23.5
2023-09-14T22:13:49.392Z,23.4
2023-09-14T22:19:41.668Z,23.4
2023-09-14T22:25:26.227Z,23.4
2023-09-14T22:31:19.082Z,23.4
2023-09-14T22:37:12.240Z,23.4
2023-09-14T22:43:16.415Z,23.4
2023-09-14T22:49:09.516Z,23.4
2023-09-14T22:55:03.500Z,23.3
2023-09-14T23:00:57.360Z,23.3
2023-09-14T23:06:51.177Z,23.3
2023-09-14T23:12:42.118Z,23.3
2023-09-14T23:18:39.544Z,23.3
2023-09-14T23:25:04.464Z,23.2
2023-09-14T23:30:56.636Z,23.2
2023-09-14T23:36:49.309Z,23.2
2023-09-14T23:42:42.644Z,23.2
2023-09-14T23:48:35.625Z,23.1
2023-09-14T23:54:28.684Z,23.1
